sensor_id;sensor_type;location;lat;lon;timestamp;temperature;humidity
3202;DHT22;34843;48.744;8.958;2023-02-27T00:00:30;-3.10;99.90
3202;DHT22;34843;48.744;8.958;2023-02-27T00:02:55;-3.20;99.90
3202;DHT22;34843;48.744;8.958;2023-02-27T00:05:21;-3.20;99.90
3202;DHT22;34843;48.744;8.958;2023-02-27T00:07:50;-3.20;99.90
3202;DHT22;34843;48.744;8.958;2023-02-27T00:10:17;-3.20;99.90
3202;DHT22;34843;48.744;8.958;2023-02-27T00:12:43;-3.10;99.90
3202;DHT22;34843;48.744;8.958;2023-02-27T00:15:11;-3.20;99.90
3202;DHT22;34843;48.744;8.958;2023-02-27T00:17:37;-3.20;99.90
3202;DHT22;34843;48.744;8.958;2023-02-27T00:20:05;-3.20;99.90
3202;DHT22;34843;48.744;8.958;2023-02-27T00:22:30;-3.20;99.90
3202;DHT22;34843;48.744;8.958;2023-02-27T00:24:56;-3.30;99.90
3202;DHT22;34843;48.744;8.958;2023-02-27T00:27:21;-3.30;99.90
3202;DHT22;34843;48.744;8.958;2023-02-27T00:29:47;-3.30;99.90
3202;DHT22;34843;48.744;8.958;2023-02-27T00:32:13;-3.30;99.90
3202;DHT22;34843;48.744;8.958;2023-02-27T00:34:38;-3.30;99.90
3202;DHT22;34843;48.744;8.958;2023-02-27T00:37:04;-3.30;99.90
3202;DHT22;34843;48.744;8.958;2023-02-27T00:39:29;-3.30;99.90
3202;DHT22;34843;48.744;8.958;2023-02-27T00:41:55;-3.30;99.90
3202;DHT22;34843;48.744;8.958;2023-02-27T00:44:20;-3.30;99.90
3202;DHT22;34843;48.744;8.958;2023-02-27T00:46:46;-3.30;99.90
3202;DHT22;34843;48.744;8.958;2023-02-27T00:49:11;-3.30;99.90
3202;DHT22;34843;48.744;8.958;2023-02-27T00:51:37;-3.30;99.90
3202;DHT22;34843;48.744;8.958;2023-02-27T00:54:03;-3.30;99.90
3202;DHT22;34843;48.744;8.958;2023-02-27T00:56:29;-2.50;99.90
3202;DHT22;34843;48.744;8.958;2023-02-27T00:58:54;-3.30;99.90
3202;DHT22;34843;48.744;8.958;2023-02-27T01:01:19;-3.40;99.90
3202;DHT22;34843;48.744;8.958;2023-02-27T01:03:45;-3.40;99.90
3202;DHT22;34843;48.744;8.958;2023-02-27T01:06:11;-3.40;99.90
3202;DHT22;34843;48.744;8.958;2023-02-27T01:08:36;-3.40;99.90
3202;DHT22;34843;48.744;8.958;2023-02-27T01:11:02;-3.40;99.90
3202;DHT22;34843;48.744;8.958;2023-02-27T01:13:27;-3.40;99.90
3202;DHT22;34843;48.744;8.958;2023-02-27T01:15:53;-3.50;99.90
3202;DHT22;34843;48.744;8.958;2023-02-27T01:18:18;-3.50;99.90
3202;DHT22;34843;48.744;8.958;2023-02-27T01:20:44;-3.50;99.90
3202;DHT22;34843;48.744;8.958;2023-02-27T01:23:09;-3.60;99.90
3202;DHT22;34843;48.744;8.958;2023-02-27T01:25:35;-3.60;99.90
3202;DHT22;34843;48.744;8.958;2023-02-27T01:28:00;-3.60;99.90
3202;DHT22;34843;48.744;8.958;2023-02-27T01:30:26;-3.60;99.90
3202;DHT22;34843;48.744;8.958;2023-02-27T01:32:51;-3.60;99.90
3202;DHT22;34843;48.744;8.958;2023-02-27T01:35:17;-3.50;99.90
3202;DHT22;34843;48.744;8.958;2023-02-27T01:37:42;-3.60;99.90
3202;DHT22;34843;48.744;8.958;2023-02-27T01:40:09;-3.30;99.90
3202;DHT22;34843;48.744;8.958;2023-02-27T01:42:35;-3.50;99.90
3202;DHT22;34843;48.744;8.958;2023-02-27T01:47:56;-3.60;99.90
3202;DHT22;34843;48.744;8.958;2023-02-27T01:50:23;-3.50;99.90
3202;DHT22;34843;48.744;8.958;2023-02-27T01:52:53;-3.50;99.90
3202;DHT22;34843;48.744;8.958;2023-02-27T01:55:20;-3.50;99.90
3202;DHT22;34843;48.744;8.958;2023-02-27T01:57:48;-3.50;99.90
3202;DHT22;34843;48.744;8.958;2023-02-27T02:00:14;-3.50;99.90
3202;DHT22;34843;48.744;8.958;2023-02-27T02:02:46;-3.60;99.90
3202;DHT22;34843;48.744;8.958;2023-02-27T02:05:14;-3.60;99.90
3202;DHT22;34843;48.744;8.958;2023-02-27T02:07:41;-3.60;99.90
3202;DHT22;34843;48.744;8.958;2023-02-27T02:10:10;-3.70;99.90
3202;DHT22;34843;48.744;8.958;2023-02-27T02:12:37;-3.70;99.90
3202;DHT22;34843;48.744;8.958;2023-02-27T02:15:04;-3.70;99.90
3202;DHT22;34843;48.744;8.958;2023-02-27T02:23:37;-3.80;99.90
3202;DHT22;34843;48.744;8.958;2023-02-27T02:42:36;-3.90;99.90
3202;DHT22;34843;48.744;8.958;2023-02-27T02:47:53;-3.80;99.90
3202;DHT22;34843;48.744;8.958;2023-02-27T02:50:34;-3.80;99.90
3202;DHT22;34843;48.744;8.958;2023-02-27T02:58:42;-3.80;99.90
3202;DHT22;34843;48.744;8.958;2023-02-27T03:01:28;-3.90;99.90
3202;DHT22;34843;48.744;8.958;2023-02-27T03:04:02;-3.90;99.90
3202;DHT22;34843;48.744;8.958;2023-02-27T03:06:32;-3.80;99.90
3202;DHT22;34843;48.744;8.958;2023-02-27T03:09:04;-3.90;99.90
3202;DHT22;34843;48.744;8.958;2023-02-27T03:11:35;-3.90;99.90
3202;DHT22;34843;48.744;8.958;2023-02-27T03:16:45;-3.90;99.90
3202;DHT22;34843;48.744;8.958;2023-02-27T03:19:17;-3.90;99.90
3202;DHT22;34843;48.744;8.958;2023-02-27T03:22:06;-3.90;99.90
3202;DHT22;34843;48.744;8.958;2023-02-27T03:24:47;-3.90;99.90
3202;DHT22;34843;48.744;8.958;2023-02-27T03:27:15;-3.90;99.90
3202;DHT22;34843;48.744;8.958;2023-02-27T03:30:08;-3.90;99.90
3202;DHT22;34843;48.744;8.958;2023-02-27T03:32:51;-3.90;99.90
3202;DHT22;34843;48.744;8.958;2023-02-27T03:35:18;-3.90;99.90
3202;DHT22;34843;48.744;8.958;2023-02-27T03:38:00;-3.80;99.90
3202;DHT22;34843;48.744;8.958;2023-02-27T03:40:58;-3.90;99.90
3202;DHT22;34843;48.744;8.958;2023-02-27T03:43:39;-4.00;99.90
3202;DHT22;34843;48.744;8.958;2023-02-27T03:46:10;-4.00;99.90
3202;DHT22;34843;48.744;8.958;2023-02-27T03:48:37;-4.00;99.90
3202;DHT22;34843;48.744;8.958;2023-02-27T03:51:03;-3.90;99.90
3202;DHT22;34843;48.744;8.958;2023-02-27T03:53:35;-3.90;99.90
3202;DHT22;34843;48.744;8.958;2023-02-27T03:56:04;-4.00;99.90
3202;DHT22;34843;48.744;8.958;2023-02-27T03:58:31;-4.00;99.90
3202;DHT22;34843;48.744;8.958;2023-02-27T04:00:57;-4.00;99.90
3202;DHT22;34843;48.744;8.958;2023-02-27T04:03:23;-4.00;99.90
3202;DHT22;34843;48.744;8.958;2023-02-27T04:05:48;-4.00;99.90
3202;DHT22;34843;48.744;8.958;2023-02-27T04:17:20;-4.10;99.90
3202;DHT22;34843;48.744;8.958;2023-02-27T04:22:45;-4.10;99.90
3202;DHT22;34843;48.744;8.958;2023-02-27T04:25:29;-4.10;99.90
3202;DHT22;34843;48.744;8.958;2023-02-27T04:30:57;-4.10;99.90
3202;DHT22;34843;48.744;8.958;2023-02-27T04:38:50;-4.30;99.90
3202;DHT22;34843;48.744;8.958;2023-02-27T04:41:44;-4.30;99.90
3202;DHT22;34843;48.744;8.958;2023-02-27T04:44:11;-4.40;99.90
3202;DHT22;34843;48.744;8.958;2023-02-27T04:46:41;-4.40;99.90
3202;DHT22;34843;48.744;8.958;2023-02-27T04:49:19;-4.40;99.90
3202;DHT22;34843;48.744;8.958;2023-02-27T04:51:52;-4.30;99.90
3202;DHT22;34843;48.744;8.958;2023-02-27T04:54:32;-4.30;99.90
3202;DHT22;34843;48.744;8.958;2023-02-27T04:57:05;-4.30;99.90
3202;DHT22;34843;48.744;8.958;2023-02-27T04:59:39;-4.40;99.90
3202;DHT22;34843;48.744;8.958;2023-02-27T05:02:15;-4.40;99.90
3202;DHT22;34843;48.744;8.958;2023-02-27T05:04:43;-4.40;99.90
3202;DHT22;34843;48.744;8.958;2023-02-27T05:07:14;-4.40;99.90
3202;DHT22;34843;48.744;8.958;2023-02-27T05:09:49;-4.40;99.90
3202;DHT22;34843;48.744;8.958;2023-02-27T05:12:28;-4.40;99.90
3202;DHT22;34843;48.744;8.958;2023-02-27T05:15:10;-4.40;99.90
3202;DHT22;34843;48.744;8.958;2023-02-27T05:17:48;-4.40;99.90
3202;DHT22;34843;48.744;8.958;2023-02-27T05:20:15;-4.30;99.90
3202;DHT22;34843;48.744;8.958;2023-02-27T05:22:57;-4.40;99.90
3202;DHT22;34843;48.744;8.958;2023-02-27T05:25:54;-4.40;99.90
3202;DHT22;34843;48.744;8.958;2023-02-27T05:28:40;-4.30;99.90
3202;DHT22;34843;48.744;8.958;2023-02-27T05:31:41;-4.30;99.90
3202;DHT22;34843;48.744;8.958;2023-02-27T05:34:13;-4.30;99.90
3202;DHT22;34843;48.744;8.958;2023-02-27T05:36:51;-4.30;99.90
3202;DHT22;34843;48.744;8.958;2023-02-27T05:39:19;-4.40;99.90
3202;DHT22;34843;48.744;8.958;2023-02-27T05:41:51;-4.30;99.90
3202;DHT22;34843;48.744;8.958;2023-02-27T05:44:28;-4.40;99.90
3202;DHT22;34843;48.744;8.958;2023-02-27T05:47:00;-4.40;99.90
3202;DHT22;34843;48.744;8.958;2023-02-27T05:49:48;-4.40;99.90
3202;DHT22;34843;48.744;8.958;2023-02-27T05:52:19;-4.40;99.90
3202;DHT22;34843;48.744;8.958;2023-02-27T05:54:53;-4.40;99.90
3202;DHT22;34843;48.744;8.958;2023-02-27T05:57:29;-4.40;99.90
3202;DHT22;34843;48.744;8.958;2023-02-27T06:00:14;-4.40;99.90
3202;DHT22;34843;48.744;8.958;2023-02-27T06:02:42;-4.30;99.90
3202;DHT22;34843;48.744;8.958;2023-02-27T06:05:09;-4.30;99.90
3202;DHT22;34843;48.744;8.958;2023-02-27T06:07:35;-4.30;99.90
3202;DHT22;34843;48.744;8.958;2023-02-27T06:10:01;-4.30;99.90
3202;DHT22;34843;48.744;8.958;2023-02-27T06:12:28;-4.20;99.90
3202;DHT22;34843;48.744;8.958;2023-02-27T06:14:53;-4.20;99.90
3202;DHT22;34843;48.744;8.958;2023-02-27T06:17:19;-4.20;99.90
3202;DHT22;34843;48.744;8.958;2023-02-27T06:19:44;-4.10;99.90
3202;DHT22;34843;48.744;8.958;2023-02-27T06:22:10;-1.20;99.90
3202;DHT22;34843;48.744;8.958;2023-02-27T06:24:36;-4.20;99.90
3202;DHT22;34843;48.744;8.958;2023-02-27T06:27:01;-4.20;99.90
3202;DHT22;34843;48.744;8.958;2023-02-27T06:29:27;-4.10;99.90
3202;DHT22;34843;48.744;8.958;2023-02-27T06:31:53;-4.10;99.90
3202;DHT22;34843;48.744;8.958;2023-02-27T06:34:18;-4.10;99.90
3202;DHT22;34843;48.744;8.958;2023-02-27T06:36:44;-4.10;99.90
3202;DHT22;34843;48.744;8.958;2023-02-27T06:39:09;-4.10;99.90
3202;DHT22;34843;48.744;8.958;2023-02-27T06:41:35;-4.00;99.90
3202;DHT22;34843;48.744;8.958;2023-02-27T06:44:01;-4.00;99.90
3202;DHT22;34843;48.744;8.958;2023-02-27T06:46:26;-3.90;99.90
3202;DHT22;34843;48.744;8.958;2023-02-27T06:48:52;-3.90;99.90
3202;DHT22;34843;48.744;8.958;2023-02-27T06:51:17;-3.90;99.90
3202;DHT22;34843;48.744;8.958;2023-02-27T06:53:43;-3.80;99.90
3202;DHT22;34843;48.744;8.958;2023-02-27T06:56:08;-3.50;99.90
3202;DHT22;34843;48.744;8.958;2023-02-27T06:58:34;-2.50;99.90
3202;DHT22;34843;48.744;8.958;2023-02-27T07:00:59;-1.50;99.90
3202;DHT22;34843;48.744;8.958;2023-02-27T07:03:25;-0.40;99.90
3202;DHT22;34843;48.744;8.958;2023-02-27T07:05:51;0.20;99.90
3202;DHT22;34843;48.744;8.958;2023-02-27T07:08:16;0.70;99.90
3202;DHT22;34843;48.744;8.958;2023-02-27T07:10:43;3.80;99.90
3202;DHT22;34843;48.744;8.958;2023-02-27T07:13:12;1.40;99.90
3202;DHT22;34843;48.744;8.958;2023-02-27T07:15:38;1.40;99.90
3202;DHT22;34843;48.744;8.958;2023-02-27T07:18:03;1.70;99.90
3202;DHT22;34843;48.744;8.958;2023-02-27T07:20:29;1.70;99.90
3202;DHT22;34843;48.744;8.958;2023-02-27T07:22:54;1.70;99.90
3202;DHT22;34843;48.744;8.958;2023-02-27T07:25:20;2.00;99.90
3202;DHT22;34843;48.744;8.958;2023-02-27T07:27:45;2.20;99.90
3202;DHT22;34843;48.744;8.958;2023-02-27T07:30:14;2.40;99.90
3202;DHT22;34843;48.744;8.958;2023-02-27T07:32:39;2.00;99.90
3202;DHT22;34843;48.744;8.958;2023-02-27T07:35:05;2.60;99.90
3202;DHT22;34843;48.744;8.958;2023-02-27T07:37:31;1.80;99.90
3202;DHT22;34843;48.744;8.958;2023-02-27T07:39:57;2.30;99.90
3202;DHT22;34843;48.744;8.958;2023-02-27T07:42:22;3.00;99.90
3202;DHT22;34843;48.744;8.958;2023-02-27T07:44:48;3.10;99.90
3202;DHT22;34843;48.744;8.958;2023-02-27T07:47:13;2.90;99.90
3202;DHT22;34843;48.744;8.958;2023-02-27T07:49:39;2.80;99.90
3202;DHT22;34843;48.744;8.958;2023-02-27T07:52:04;3.20;99.90
3202;DHT22;34843;48.744;8.958;2023-02-27T07:54:31;3.20;99.90
3202;DHT22;34843;48.744;8.958;2023-02-27T07:56:58;3.70;99.90
3202;DHT22;34843;48.744;8.958;2023-02-27T07:59:23;3.80;99.90
3202;DHT22;34843;48.744;8.958;2023-02-27T08:01:49;3.70;99.90
3202;DHT22;34843;48.744;8.958;2023-02-27T08:04:14;3.60;99.90
3202;DHT22;34843;48.744;8.958;2023-02-27T08:06:40;3.60;99.90
3202;DHT22;34843;48.744;8.958;2023-02-27T08:09:05;3.00;99.90
3202;DHT22;34843;48.744;8.958;2023-02-27T08:11:31;2.90;99.90
3202;DHT22;34843;48.744;8.958;2023-02-27T08:13:57;3.20;99.90
3202;DHT22;34843;48.744;8.958;2023-02-27T08:16:22;3.20;99.90
3202;DHT22;34843;48.744;8.958;2023-02-27T08:18:48;2.20;99.90
3202;DHT22;34843;48.744;8.958;2023-02-27T08:21:14;1.20;99.90
3202;DHT22;34843;48.744;8.958;2023-02-27T08:23:40;0.70;99.90
3202;DHT22;34843;48.744;8.958;2023-02-27T08:26:05;0.50;99.90
3202;DHT22;34843;48.744;8.958;2023-02-27T08:28:31;0.10;99.90
3202;DHT22;34843;48.744;8.958;2023-02-27T08:30:56;-0.20;99.90
3202;DHT22;34843;48.744;8.958;2023-02-27T08:33:23;-0.60;99.90
3202;DHT22;34843;48.744;8.958;2023-02-27T08:35:49;-0.70;99.90
3202;DHT22;34843;48.744;8.958;2023-02-27T08:38:14;-0.90;99.90
3202;DHT22;34843;48.744;8.958;2023-02-27T08:40:40;-0.90;99.90
3202;DHT22;34843;48.744;8.958;2023-02-27T08:43:05;-1.10;99.90
3202;DHT22;34843;48.744;8.958;2023-02-27T08:45:31;-1.00;99.90
3202;DHT22;34843;48.744;8.958;2023-02-27T08:47:56;-1.10;99.90
3202;DHT22;34843;48.744;8.958;2023-02-27T08:50:22;-1.10;99.90
3202;DHT22;34843;48.744;8.958;2023-02-27T08:52:48;-1.00;99.90
3202;DHT22;34843;48.744;8.958;2023-02-27T08:55:13;-0.50;99.90
3202;DHT22;34843;48.744;8.958;2023-02-27T08:57:39;-0.80;99.90
3202;DHT22;34843;48.744;8.958;2023-02-27T09:00:05;-0.70;99.90
3202;DHT22;34843;48.744;8.958;2023-02-27T09:02:32;-0.60;99.90
3202;DHT22;34843;48.744;8.958;2023-02-27T09:04:57;-0.30;99.90
3202;DHT22;34843;48.744;8.958;2023-02-27T09:07:23;-0.20;99.90
3202;DHT22;34843;48.744;8.958;2023-02-27T09:09:49;-0.40;99.90
3202;DHT22;34843;48.744;8.958;2023-02-27T09:12:14;-0.50;99.90
3202;DHT22;34843;48.744;8.958;2023-02-27T09:14:40;-0.30;99.90
3202;DHT22;34843;48.744;8.958;2023-02-27T09:17:06;-0.30;99.90
3202;DHT22;34843;48.744;8.958;2023-02-27T09:19:32;-0.30;99.90
3202;DHT22;34843;48.744;8.958;2023-02-27T09:21:57;0.00;99.90
3202;DHT22;34843;48.744;8.958;2023-02-27T09:24:23;0.50;99.90
3202;DHT22;34843;48.744;8.958;2023-02-27T09:26:49;0.30;99.90
3202;DHT22;34843;48.744;8.958;2023-02-27T09:29:15;0.40;99.90
3202;DHT22;34843;48.744;8.958;2023-02-27T09:31:40;0.60;99.90
3202;DHT22;34843;48.744;8.958;2023-02-27T09:34:06;0.10;99.90
3202;DHT22;34843;48.744;8.958;2023-02-27T09:36:32;0.10;99.90
3202;DHT22;34843;48.744;8.958;2023-02-27T09:38:58;0.20;99.90
3202;DHT22;34843;48.744;8.958;2023-02-27T09:41:45;0.40;99.90
3202;DHT22;34843;48.744;8.958;2023-02-27T09:46:47;0.60;99.90
3202;DHT22;34843;48.744;8.958;2023-02-27T09:49:16;0.60;99.90
3202;DHT22;34843;48.744;8.958;2023-02-27T09:51:43;0.70;99.90
3202;DHT22;34843;48.744;8.958;2023-02-27T09:54:11;0.60;99.90
3202;DHT22;34843;48.744;8.958;2023-02-27T09:56:49;0.80;99.90
3202;DHT22;34843;48.744;8.958;2023-02-27T10:02:36;0.60;99.90
3202;DHT22;34843;48.744;8.958;2023-02-27T10:15:52;0.90;99.90
3202;DHT22;34843;48.744;8.958;2023-02-27T10:18:21;1.00;99.90
3202;DHT22;34843;48.744;8.958;2023-02-27T10:20:55;1.00;99.90
3202;DHT22;34843;48.744;8.958;2023-02-27T10:23:28;1.00;99.90
3202;DHT22;34843;48.744;8.958;2023-02-27T10:25:56;1.10;99.90
3202;DHT22;34843;48.744;8.958;2023-02-27T10:28:24;1.20;99.90
3202;DHT22;34843;48.744;8.958;2023-02-27T10:30:53;1.70;99.90
3202;DHT22;34843;48.744;8.958;2023-02-27T10:33:37;1.10;99.90
3202;DHT22;34843;48.744;8.958;2023-02-27T10:36:05;1.00;99.90
3202;DHT22;34843;48.744;8.958;2023-02-27T10:38:51;0.80;99.90
3202;DHT22;34843;48.744;8.958;2023-02-27T10:41:19;0.90;99.90
3202;DHT22;34843;48.744;8.958;2023-02-27T10:43:45;0.90;99.90
3202;DHT22;34843;48.744;8.958;2023-02-27T10:46:24;1.30;99.90
3202;DHT22;34843;48.744;8.958;2023-02-27T10:48:51;1.10;99.90
3202;DHT22;34843;48.744;8.958;2023-02-27T10:51:26;1.30;99.90
3202;DHT22;34843;48.744;8.958;2023-02-27T10:54:15;1.40;99.90
3202;DHT22;34843;48.744;8.958;2023-02-27T10:56:46;1.70;99.90
3202;DHT22;34843;48.744;8.958;2023-02-27T10:59:30;1.90;99.90
3202;DHT22;34843;48.744;8.958;2023-02-27T11:01:59;2.00;99.90
3202;DHT22;34843;48.744;8.958;2023-02-27T11:04:33;2.00;99.90
3202;DHT22;34843;48.744;8.958;2023-02-27T11:07:03;2.20;99.90
3202;DHT22;34843;48.744;8.958;2023-02-27T11:09:32;1.50;99.90
3202;DHT22;34843;48.744;8.958;2023-02-27T11:12:26;1.50;99.90
3202;DHT22;34843;48.744;8.958;2023-02-27T11:14:55;1.40;99.90
3202;DHT22;34843;48.744;8.958;2023-02-27T11:17:27;1.40;99.90
3202;DHT22;34843;48.744;8.958;2023-02-27T11:19:54;1.40;99.90
3202;DHT22;34843;48.744;8.958;2023-02-27T11:22:22;1.60;99.90
3202;DHT22;34843;48.744;8.958;2023-02-27T11:24:49;1.60;99.90
3202;DHT22;34843;48.744;8.958;2023-02-27T11:27:26;1.70;99.90
3202;DHT22;34843;48.744;8.958;2023-02-27T11:30:20;1.80;99.90
3202;DHT22;34843;48.744;8.958;2023-02-27T11:32:47;2.20;99.90
3202;DHT22;34843;48.744;8.958;2023-02-27T11:35:29;2.50;99.90
3202;DHT22;34843;48.744;8.958;2023-02-27T11:38:01;2.20;99.90
3202;DHT22;34843;48.744;8.958;2023-02-27T11:40:33;2.30;99.90
3202;DHT22;34843;48.744;8.958;2023-02-27T11:43:14;2.20;99.90
3202;DHT22;34843;48.744;8.958;2023-02-27T11:45:41;2.10;99.90
3202;DHT22;34843;48.744;8.958;2023-02-27T11:48:13;2.20;99.90
3202;DHT22;34843;48.744;8.958;2023-02-27T11:51:01;2.30;99.90
3202;DHT22;34843;48.744;8.958;2023-02-27T11:56:24;2.80;99.90
3202;DHT22;34843;48.744;8.958;2023-02-27T12:05:26;3.20;99.90
3202;DHT22;34843;48.744;8.958;2023-02-27T12:07:45;3.10;99.90
3202;DHT22;34843;48.744;8.958;2023-02-27T12:10:21;3.20;99.90
3202;DHT22;34843;48.744;8.958;2023-02-27T12:13:14;3.80;99.90
3202;DHT22;34843;48.744;8.958;2023-02-27T12:15:49;3.80;99.90
3202;DHT22;34843;48.744;8.958;2023-02-27T12:21:18;3.90;99.90
3202;DHT22;34843;48.744;8.958;2023-02-27T12:26:30;4.20;99.90
3202;DHT22;34843;48.744;8.958;2023-02-27T12:36:37;4.40;99.90
3202;DHT22;34843;48.744;8.958;2023-02-27T12:39:03;7.50;99.90
3202;DHT22;34843;48.744;8.958;2023-02-27T12:44:38;4.10;99.90
3202;DHT22;34843;48.744;8.958;2023-02-27T12:50:15;3.30;99.90
3202;DHT22;34843;48.744;8.958;2023-02-27T13:00:34;3.60;99.90
3202;DHT22;34843;48.744;8.958;2023-02-27T13:03:15;3.70;99.90
3202;DHT22;34843;48.744;8.958;2023-02-27T13:06:02;3.70;99.90
3202;DHT22;34843;48.744;8.958;2023-02-27T13:11:18;4.00;99.90
3202;DHT22;34843;48.744;8.958;2023-02-27T13:13:49;4.20;99.90
3202;DHT22;34843;48.744;8.958;2023-02-27T13:16:42;4.30;99.90
3202;DHT22;34843;48.744;8.958;2023-02-27T13:19:34;4.10;99.90
3202;DHT22;34843;48.744;8.958;2023-02-27T13:22:27;3.90;99.90
3202;DHT22;34843;48.744;8.958;2023-02-27T13:24:59;3.90;99.90
3202;DHT22;34843;48.744;8.958;2023-02-27T13:27:30;3.70;99.90
3202;DHT22;34843;48.744;8.958;2023-02-27T13:30:06;3.60;99.90
3202;DHT22;34843;48.744;8.958;2023-02-27T13:32:40;3.40;99.90
3202;DHT22;34843;48.744;8.958;2023-02-27T13:35:29;3.30;99.90
3202;DHT22;34843;48.744;8.958;2023-02-27T13:37:59;3.10;99.90
3202;DHT22;34843;48.744;8.958;2023-02-27T13:40:40;3.00;99.90
3202;DHT22;34843;48.744;8.958;2023-02-27T13:43:36;3.20;99.90
3202;DHT22;34843;48.744;8.958;2023-02-27T13:46:21;3.30;99.90
3202;DHT22;34843;48.744;8.958;2023-02-27T13:48:49;4.10;99.90
3202;DHT22;34843;48.744;8.958;2023-02-27T13:59:19;3.60;99.90
3202;DHT22;34843;48.744;8.958;2023-02-27T14:01:53;3.20;99.90
3202;DHT22;34843;48.744;8.958;2023-02-27T14:04:20;2.80;99.90
3202;DHT22;34843;48.744;8.958;2023-02-27T14:06:47;2.70;99.90
3202;DHT22;34843;48.744;8.958;2023-02-27T14:09:18;2.70;99.90
3202;DHT22;34843;48.744;8.958;2023-02-27T14:11:54;2.70;99.90
3202;DHT22;34843;48.744;8.958;2023-02-27T14:14:44;2.70;99.90
3202;DHT22;34843;48.744;8.958;2023-02-27T14:17:12;2.60;99.90
3202;DHT22;34843;48.744;8.958;2023-02-27T14:24:51;2.70;99.90
3202;DHT22;34843;48.744;8.958;2023-02-27T14:27:23;2.70;99.90
3202;DHT22;34843;48.744;8.958;2023-02-27T14:29:51;2.60;99.90
3202;DHT22;34843;48.744;8.958;2023-02-27T14:32:21;2.20;99.90
3202;DHT22;34843;48.744;8.958;2023-02-27T14:34:47;2.10;99.90
3202;DHT22;34843;48.744;8.958;2023-02-27T14:37:17;2.20;99.90
3202;DHT22;34843;48.744;8.958;2023-02-27T14:39:47;2.50;99.90
3202;DHT22;34843;48.744;8.958;2023-02-27T14:44:58;1.80;99.90
3202;DHT22;34843;48.744;8.958;2023-02-27T14:49:52;1.70;99.90
3202;DHT22;34843;48.744;8.958;2023-02-27T14:52:26;1.90;99.90
3202;DHT22;34843;48.744;8.958;2023-02-27T14:54:52;2.40;99.90
3202;DHT22;34843;48.744;8.958;2023-02-27T14:57:23;2.50;99.90
3202;DHT22;34843;48.744;8.958;2023-02-27T14:59:53;2.10;99.90
3202;DHT22;34843;48.744;8.958;2023-02-27T15:02:27;2.30;99.90
3202;DHT22;34843;48.744;8.958;2023-02-27T15:05:21;2.10;99.90
3202;DHT22;34843;48.744;8.958;2023-02-27T15:07:48;2.00;99.90
3202;DHT22;34843;48.744;8.958;2023-02-27T15:10:21;2.60;99.90
3202;DHT22;34843;48.744;8.958;2023-02-27T15:12:50;1.80;99.90
3202;DHT22;34843;48.744;8.958;2023-02-27T15:15:18;1.80;99.90
3202;DHT22;34843;48.744;8.958;2023-02-27T15:17:44;1.90;99.90
3202;DHT22;34843;48.744;8.958;2023-02-27T15:20:31;1.80;99.90
3202;DHT22;34843;48.744;8.958;2023-02-27T15:23:01;1.90;99.90
3202;DHT22;34843;48.744;8.958;2023-02-27T15:25:43;1.90;99.90
3202;DHT22;34843;48.744;8.958;2023-02-27T15:28:36;1.70;99.90
3202;DHT22;34843;48.744;8.958;2023-02-27T15:31:02;1.80;99.90
3202;DHT22;34843;48.744;8.958;2023-02-27T15:33:30;1.60;99.90
3202;DHT22;34843;48.744;8.958;2023-02-27T15:35:57;1.60;99.90
3202;DHT22;34843;48.744;8.958;2023-02-27T15:38:32;1.60;99.90
3202;DHT22;34843;48.744;8.958;2023-02-27T15:40:59;1.50;99.90
3202;DHT22;34843;48.744;8.958;2023-02-27T15:43:26;1.30;99.90
3202;DHT22;34843;48.744;8.958;2023-02-27T15:45:53;1.40;99.90
3202;DHT22;34843;48.744;8.958;2023-02-27T15:48:19;1.90;99.90
3202;DHT22;34843;48.744;8.958;2023-02-27T15:50:53;1.30;99.90
3202;DHT22;34843;48.744;8.958;2023-02-27T15:53:21;1.20;99.90
3202;DHT22;34843;48.744;8.958;2023-02-27T15:55:59;1.20;99.90
3202;DHT22;34843;48.744;8.958;2023-02-27T16:01:14;1.50;99.90
3202;DHT22;34843;48.744;8.958;2023-02-27T16:03:44;1.20;99.90
3202;DHT22;34843;48.744;8.958;2023-02-27T16:06:17;1.10;99.90
3202;DHT22;34843;48.744;8.958;2023-02-27T16:08:51;1.10;99.90
3202;DHT22;34843;48.744;8.958;2023-02-27T16:11:19;1.20;99.90
3202;DHT22;34843;48.744;8.958;2023-02-27T16:13:45;1.10;99.90
3202;DHT22;34843;48.744;8.958;2023-02-27T16:18:54;1.00;99.90
3202;DHT22;34843;48.744;8.958;2023-02-27T16:21:24;0.80;99.90
3202;DHT22;34843;48.744;8.958;2023-02-27T16:23:50;1.00;99.90
3202;DHT22;34843;48.744;8.958;2023-02-27T16:26:32;1.00;99.90
3202;DHT22;34843;48.744;8.958;2023-02-27T16:29:06;1.40;99.90
3202;DHT22;34843;48.744;8.958;2023-02-27T16:31:45;1.00;99.90
3202;DHT22;34843;48.744;8.958;2023-02-27T16:34:15;1.00;99.90
3202;DHT22;34843;48.744;8.958;2023-02-27T16:36:55;0.90;99.90
3202;DHT22;34843;48.744;8.958;2023-02-27T16:39:21;0.90;99.90
3202;DHT22;34843;48.744;8.958;2023-02-27T16:41:47;0.90;99.90
3202;DHT22;34843;48.744;8.958;2023-02-27T16:44:13;0.90;99.90
3202;DHT22;34843;48.744;8.958;2023-02-27T16:46:39;0.80;99.90
3202;DHT22;34843;48.744;8.958;2023-02-27T16:49:05;1.30;99.90
3202;DHT22;34843;48.744;8.958;2023-02-27T16:51:32;0.70;99.90
3202;DHT22;34843;48.744;8.958;2023-02-27T16:53:59;0.70;99.90
3202;DHT22;34843;48.744;8.958;2023-02-27T16:56:26;1.30;99.90
3202;DHT22;34843;48.744;8.958;2023-02-27T16:58:52;0.60;99.90
3202;DHT22;34843;48.744;8.958;2023-02-27T17:01:18;0.70;99.90
3202;DHT22;34843;48.744;8.958;2023-02-27T17:03:45;0.60;99.90
3202;DHT22;34843;48.744;8.958;2023-02-27T17:06:12;0.60;99.90
3202;DHT22;34843;48.744;8.958;2023-02-27T17:08:40;0.60;99.90
3202;DHT22;34843;48.744;8.958;2023-02-27T17:11:06;0.60;99.90
3202;DHT22;34843;48.744;8.958;2023-02-27T17:13:32;0.60;99.90
3202;DHT22;34843;48.744;8.958;2023-02-27T17:16:03;0.60;99.90
3202;DHT22;34843;48.744;8.958;2023-02-27T17:18:29;0.60;99.90
3202;DHT22;34843;48.744;8.958;2023-02-27T17:20:58;0.70;99.90
3202;DHT22;34843;48.744;8.958;2023-02-27T17:23:24;0.70;99.90
3202;DHT22;34843;48.744;8.958;2023-02-27T17:25:51;0.70;99.90
3202;DHT22;34843;48.744;8.958;2023-02-27T17:28:17;0.60;99.90
3202;DHT22;34843;48.744;8.958;2023-02-27T17:30:43;0.50;99.90
3202;DHT22;34843;48.744;8.958;2023-02-27T17:33:08;0.50;99.90
3202;DHT22;34843;48.744;8.958;2023-02-27T17:35:34;1.30;99.90
3202;DHT22;34843;48.744;8.958;2023-02-27T17:37:59;0.50;99.90
3202;DHT22;34843;48.744;8.958;2023-02-27T17:40:25;0.50;99.90
3202;DHT22;34843;48.744;8.958;2023-02-27T17:42:51;0.50;99.90
3202;DHT22;34843;48.744;8.958;2023-02-27T17:45:17;0.50;99.90
3202;DHT22;34843;48.744;8.958;2023-02-27T17:47:46;0.50;99.90
3202;DHT22;34843;48.744;8.958;2023-02-27T17:50:12;0.50;99.90
3202;DHT22;34843;48.744;8.958;2023-02-27T17:52:37;0.50;99.90
3202;DHT22;34843;48.744;8.958;2023-02-27T17:55:04;0.80;99.90
3202;DHT22;34843;48.744;8.958;2023-02-27T17:57:30;0.50;99.90
3202;DHT22;34843;48.744;8.958;2023-02-27T17:59:55;0.60;99.90
3202;DHT22;34843;48.744;8.958;2023-02-27T18:02:21;0.50;99.90
3202;DHT22;34843;48.744;8.958;2023-02-27T18:04:47;0.50;99.90
3202;DHT22;34843;48.744;8.958;2023-02-27T18:07:12;0.40;99.90
3202;DHT22;34843;48.744;8.958;2023-02-27T18:09:38;0.40;99.90
3202;DHT22;34843;48.744;8.958;2023-02-27T18:12:04;0.30;99.90
3202;DHT22;34843;48.744;8.958;2023-02-27T18:14:29;0.30;99.90
3202;DHT22;34843;48.744;8.958;2023-02-27T18:16:55;0.20;99.90
3202;DHT22;34843;48.744;8.958;2023-02-27T18:19:21;0.20;99.90
3202;DHT22;34843;48.744;8.958;2023-02-27T18:21:49;0.20;99.90
3202;DHT22;34843;48.744;8.958;2023-02-27T18:24:15;0.20;99.90
3202;DHT22;34843;48.744;8.958;2023-02-27T18:26:40;0.10;99.90
3202;DHT22;34843;48.744;8.958;2023-02-27T18:29:09;0.10;99.90